createdAt,value
2023-01-08T00:02:02.045Z,100455.13
2023-01-08T00:04:32.596Z,100451.36
2023-01-08T00:07:03.283Z,100452.95
2023-01-08T00:09:34.412Z,100451.81
2023-01-08T00:12:05.798Z,100451.52
2023-01-08T00:14:37.483Z,100448.90
2023-01-08T00:17:08.719Z,100445.16
2023-01-08T00:19:41.224Z,100445.45
2023-01-08T00:22:12.347Z,100440.36
2023-01-08T00:24:42.896Z,100439.55
2023-01-08T00:27:13.431Z,100432.70
2023-01-08T00:29:43.959Z,100439.23
2023-01-08T00:32:15.719Z,100434.98
2023-01-08T00:34:46.880Z,100426.66
2023-01-08T00:37:19.420Z,100423.87
2023-01-08T00:39:49.982Z,100437.49
2023-01-08T00:42:20.645Z,100432.17
2023-01-08T00:44:51.204Z,100429.56
2023-01-08T00:47:26.512Z,100426.41
2023-01-08T00:49:57.038Z,100429.67
2023-01-08T00:52:27.784Z,100431.28
2023-01-08T00:54:58.314Z,100420.35
2023-01-08T00:57:37.970Z,100417.16
2023-01-08T01:00:11.614Z,100410.61
2023-01-08T01:02:42.829Z,100414.73
2023-01-08T01:05:17.803Z,100413.82
2023-01-08T01:07:49.496Z,100413.17
2023-01-08T01:10:20.446Z,100415.03
2023-01-08T01:12:51.345Z,100414.98
2023-01-08T01:15:22.444Z,100410.63
2023-01-08T01:17:53.176Z,100403.65
2023-01-08T01:20:24.024Z,100411.41
2023-01-08T01:22:54.580Z,100401.34
2023-01-08T01:25:25.087Z,100391.74
2023-01-08T01:27:55.832Z,100399.83
2023-01-08T01:30:27.515Z,100387.80
2023-01-08T01:32:58.073Z,100382.39
2023-01-08T01:35:28.624Z,100372.98
2023-01-08T01:37:59.195Z,100381.02
2023-01-08T01:40:31.122Z,100362.81
2023-01-08T01:43:04.505Z,100354.91
2023-01-08T01:45:35.152Z,100362.13
2023-01-08T01:48:15.440Z,100364.22
2023-01-08T01:50:48.992Z,100359.49
2023-01-08T01:53:25.202Z,100362.09
2023-01-08T01:55:56.928Z,100361.89
2023-01-08T01:58:32.876Z,100360.59
2023-01-08T02:01:09.144Z,100361.71
2023-01-08T02:03:41.284Z,100359.04
2023-01-08T02:06:23.580Z,100358.89
2023-01-08T02:09:18.240Z,100350.19
2023-01-08T02:11:56.045Z,100359.64
2023-01-08T02:14:29.712Z,100349.01
2023-01-08T02:17:03.377Z,100344.99
2023-01-08T02:19:46.044Z,100342.02
2023-01-08T02:22:34.706Z,100324.83
2023-01-08T02:25:32.359Z,100321.84
2023-01-08T02:28:05.637Z,100317.31
2023-01-08T02:30:36.439Z,100315.82
2023-01-08T02:33:07.258Z,100326.83
2023-01-08T02:35:44.616Z,100308.98
2023-01-08T02:38:17.942Z,100307.81
2023-01-08T02:40:57.026Z,100309.55
2023-01-08T02:43:39.252Z,100305.80
2023-01-08T02:46:14.094Z,100307.81
2023-01-08T02:48:47.991Z,100308.97
2023-01-08T02:51:20.794Z,100307.25
2023-01-08T02:53:54.043Z,100308.86
2023-01-08T02:56:27.551Z,100311.77
2023-01-08T02:59:01.253Z,100307.98
2023-01-08T03:01:32.601Z,100295.46
2023-01-08T03:04:12.625Z,100296.02
2023-01-08T03:06:45.455Z,100295.96
2023-01-08T03:09:17.580Z,100295.90
2023-01-08T03:11:51.036Z,100299.34
2023-01-08T03:14:24.847Z,100298.08
2023-01-08T03:17:19.433Z,100300.02
2023-01-08T03:19:52.892Z,100291.17
2023-01-08T03:22:25.471Z,100294.89
2023-01-08T03:24:57.872Z,100301.84
2023-01-08T03:27:31.317Z,100294.42
2023-01-08T03:30:02.538Z,100297.03
2023-01-08T03:32:35.105Z,100295.69
2023-01-08T03:35:11.005Z,100293.69
2023-01-08T03:37:44.600Z,100282.37
2023-01-08T03:40:20.891Z,100264.00
2023-01-08T03:42:51.527Z,100274.63
2023-01-08T03:45:24.429Z,100260.19
2023-01-08T03:47:56.756Z,100263.14
2023-01-08T03:50:30.673Z,100268.27
2023-01-08T03:53:01.925Z,100262.12
2023-01-08T03:55:33.515Z,100266.47
2023-01-08T03:58:04.180Z,100275.58
2023-01-08T04:00:36.443Z,100266.64
2023-01-08T04:03:07.209Z,100268.87
2023-01-08T04:05:38.077Z,100271.27
2023-01-08T04:08:08.619Z,100264.89
2023-01-08T04:10:39.206Z,100254.13
2023-01-08T04:13:10.088Z,100258.19
2023-01-08T04:15:41.040Z,100254.88
2023-01-08T04:18:11.616Z,100254.31
2023-01-08T04:20:43.643Z,100264.67
2023-01-08T04:23:14.315Z,100258.68
2023-01-08T04:25:47.344Z,100249.73
2023-01-08T04:28:18.540Z,100248.78
2023-01-08T04:30:49.259Z,100246.14
2023-01-08T04:33:19.829Z,100242.20
2023-01-08T04:35:50.410Z,100236.66
2023-01-08T04:38:21.618Z,100229.20
2023-01-08T04:40:53.911Z,100237.96
2023-01-08T04:43:24.468Z,100231.35
2023-01-08T04:45:56.710Z,100230.12
2023-01-08T04:48:29.758Z,100222.75
2023-01-08T04:51:01.789Z,100202.94
2023-01-08T04:53:34.557Z,100184.73
2023-01-08T04:56:17.915Z,100189.30
2023-01-08T04:58:48.455Z,100198.18
2023-01-08T05:01:22.436Z,100193.21
2023-01-08T05:03:58.146Z,100208.28
2023-01-08T05:06:30.610Z,100207.45
2023-01-08T05:09:01.673Z,100191.68
2023-01-08T05:11:32.222Z,100197.01
2023-01-08T05:14:03.178Z,100192.62
2023-01-08T05:16:34.517Z,100190.18
2023-01-08T05:19:05.102Z,100169.58
2023-01-08T05:21:35.694Z,100168.38
2023-01-08T05:24:06.424Z,100175.20
2023-01-08T05:26:37.583Z,100165.61
2023-01-08T05:29:12.729Z,100176.98
2023-01-08T05:31:43.675Z,100170.75
2023-01-08T05:34:14.248Z,100177.94
2023-01-08T05:36:44.845Z,100158.56
2023-01-08T05:39:17.338Z,100147.99
2023-01-08T05:41:48.265Z,100153.13
2023-01-08T05:44:19.686Z,100150.17
2023-01-08T05:46:50.224Z,100159.10
2023-01-08T05:49:22.537Z,100156.77
2023-01-08T05:51:53.459Z,100153.52
2023-01-08T05:54:24.078Z,100160.12
2023-01-08T05:56:54.673Z,100138.73
2023-01-08T05:59:25.214Z,100129.25
2023-01-08T06:01:55.775Z,100138.81
2023-01-08T06:04:26.461Z,100148.27
2023-01-08T06:06:57.432Z,100149.13
2023-01-08T06:09:28.023Z,100160.72
2023-01-08T06:11:58.558Z,100166.64
2023-01-08T06:14:29.094Z,100152.68
2023-01-08T06:16:59.669Z,100174.23
2023-01-08T06:19:33.394Z,100162.80
2023-01-08T06:22:03.991Z,100168.73
2023-01-08T06:24:34.570Z,100171.20
2023-01-08T06:27:05.116Z,100162.67
2023-01-08T06:29:35.654Z,100176.37
2023-01-08T06:32:07.938Z,100176.28
2023-01-08T06:34:38.835Z,100167.91
2023-01-08T06:37:09.426Z,100167.44
2023-01-08T06:39:39.994Z,100175.77
2023-01-08T06:42:10.566Z,100171.74
2023-01-08T06:44:41.477Z,100175.52
2023-01-08T06:47:12.418Z,100172.80
2023-01-08T06:49:43.370Z,100164.27
2023-01-08T06:52:14.138Z,100170.83
2023-01-08T06:54:44.711Z,100164.71
2023-01-08T06:57:15.859Z,100158.25
2023-01-08T06:59:48.413Z,100159.27
2023-01-08T07:02:21.069Z,100158.58
2023-01-08T07:04:52.516Z,100151.47
2023-01-08T07:07:24.280Z,100152.23
2023-01-08T07:09:56.555Z,100151.48
2023-01-08T07:12:27.240Z,100157.27
2023-01-08T07:14:58.015Z,100148.96
2023-01-08T07:17:29.685Z,100150.20
2023-01-08T07:20:00.354Z,100150.42
2023-01-08T07:22:31.885Z,100139.77
2023-01-08T07:25:02.765Z,100139.61
2023-01-08T07:27:33.296Z,100135.55
2023-01-08T07:30:03.973Z,100124.27
2023-01-08T07:32:34.626Z,100135.25
2023-01-08T07:35:05.598Z,100115.94
2023-01-08T07:37:37.954Z,100120.09
2023-01-08T07:40:09.800Z,100128.52
2023-01-08T07:42:40.439Z,100132.69
2023-01-08T07:45:11.303Z,100129.55
2023-01-08T07:47:42.262Z,100129.03
2023-01-08T07:50:13.197Z,100137.02
2023-01-08T07:52:43.751Z,100127.54
2023-01-08T07:55:14.304Z,100124.93
2023-01-08T07:57:44.865Z,100121.95
2023-01-08T08:00:15.967Z,100116.08
2023-01-08T08:02:47.472Z,100116.70
2023-01-08T08:05:20.875Z,100126.76
2023-01-08T08:07:51.382Z,100129.03
2023-01-08T08:10:21.980Z,100124.41
2023-01-08T08:12:53.899Z,100115.33
2023-01-08T08:15:25.362Z,100123.70
2023-01-08T08:17:55.983Z,100123.75
2023-01-08T08:20:26.811Z,100121.29
2023-01-08T08:23:09.270Z,100121.77
2023-01-08T08:25:39.816Z,100104.54
2023-01-08T08:28:12.587Z,100110.52
2023-01-08T08:30:43.704Z,100100.42
2023-01-08T08:33:17.270Z,100103.37
2023-01-08T08:35:52.240Z,100108.90
2023-01-08T08:38:24.136Z,100093.71
2023-01-08T08:40:56.769Z,100101.01
2023-01-08T08:43:27.308Z,100101.10
2023-01-08T08:45:58.450Z,100094.16
2023-01-08T08:48:28.993Z,100095.80
2023-01-08T08:50:59.565Z,100094.87
2023-01-08T08:53:30.139Z,100099.06
2023-01-08T08:56:01.000Z,100100.56
2023-01-08T08:58:31.626Z,100095.22
2023-01-08T09:01:06.290Z,100099.26
2023-01-08T09:03:37.698Z,100091.79
2023-01-08T09:06:10.026Z,100081.95
2023-01-08T09:08:40.562Z,100078.34
2023-01-08T09:11:14.338Z,100075.63
2023-01-08T09:13:44.370Z,100067.83
2023-01-08T09:16:15.112Z,100072.11
2023-01-08T09:18:45.814Z,100082.33
2023-01-08T09:21:16.656Z,100072.57
2023-01-08T09:23:49.984Z,100074.58
2023-01-08T09:26:20.561Z,100069.82
2023-01-08T09:28:52.168Z,100066.19
2023-01-08T09:31:23.883Z,100056.95
2023-01-08T09:33:54.588Z,100051.54
2023-01-08T09:36:25.170Z,100053.42
2023-01-08T09:38:55.725Z,100048.80
2023-01-08T09:41:29.198Z,100044.74
2023-01-08T09:44:03.505Z,100041.22
2023-01-08T09:46:34.822Z,100044.59
2023-01-08T09:49:11.171Z,100049.83
2023-01-08T09:51:41.888Z,100046.61
2023-01-08T09:54:15.309Z,100040.63
2023-01-08T09:56:46.716Z,100036.33
2023-01-08T09:59:19.381Z,100040.63
2023-01-08T10:01:50.128Z,100031.49
2023-01-08T10:04:26.933Z,100048.20
2023-01-08T10:07:00.431Z,100040.47
2023-01-08T10:09:33.068Z,100042.56
2023-01-08T10:12:06.216Z,100038.47
2023-01-08T10:14:48.718Z,100037.44
2023-01-08T10:17:30.860Z,100030.09
2023-01-08T10:20:01.375Z,100017.58
2023-01-08T10:22:34.481Z,100018.95
2023-01-08T10:25:10.909Z,100021.56
2023-01-08T10:27:55.856Z,100031.59
2023-01-08T10:30:38.267Z,100022.10
2023-01-08T10:33:14.492Z,100030.61
2023-01-08T10:35:46.801Z,100021.82
2023-01-08T10:38:34.995Z,100002.81
2023-01-08T10:41:08.443Z,99989.14
2023-01-08T10:43:58.193Z,100010.39
2023-01-08T10:46:40.436Z,99998.27
2023-01-08T10:49:16.513Z,99996.56
2023-01-08T10:51:55.796Z,100009.87
2023-01-08T10:54:30.624Z,100009.69
2023-01-08T10:57:02.619Z,100005.38
2023-01-08T10:59:33.323Z,99994.03
2023-01-08T11:02:04.873Z,99983.69
2023-01-08T11:04:37.845Z,99970.90
2023-01-08T11:07:09.096Z,99967.16
2023-01-08T11:09:45.665Z,99953.22
2023-01-08T11:12:37.375Z,99953.22
2023-01-08T11:15:11.245Z,99951.42
2023-01-08T11:17:41.793Z,99937.38
2023-01-08T11:20:27.299Z,99935.37
2023-01-08T11:23:19.232Z,99932.56
2023-01-08T11:26:09.139Z,99940.75
2023-01-08T11:28:48.479Z,99933.75
2023-01-08T11:31:24.708Z,99936.20
2023-01-08T11:33:58.142Z,99954.98
2023-01-08T11:36:37.655Z,99951.50
2023-01-08T11:39:10.507Z,99944.68
2023-01-08T11:41:43.963Z,99953.69
2023-01-08T11:44:20.325Z,99947.91
2023-01-08T11:47:00.907Z,99943.62
2023-01-08T11:50:06.144Z,99940.37
2023-01-08T11:52:51.397Z,99940.37
2023-01-08T11:55:42.886Z,99937.11
2023-01-08T11:58:23.382Z,99941.09
2023-01-08T12:00:59.349Z,99941.09
2023-01-08T12:03:47.959Z,99932.77
2023-01-08T12:06:42.563Z,99920.89
2023-01-08T12:09:42.634Z,99925.41
2023-01-08T12:12:16.581Z,99904.38
2023-01-08T12:14:52.756Z,99915.66
2023-01-08T12:17:44.157Z,99906.52
2023-01-08T12:20:41.282Z,99900.96
2023-01-08T12:23:42.771Z,99908.20
2023-01-08T12:29:13.058Z,99901.72
2023-01-08T12:31:54.474Z,99901.22
2023-01-08T12:34:34.962Z,99898.11
2023-01-08T12:37:08.390Z,99896.19
2023-01-08T12:39:41.866Z,99899.12
2023-01-08T12:42:15.261Z,99884.14
2023-01-08T12:44:47.849Z,99997.60
2023-01-08T12:47:22.279Z,99852.61
2023-01-08T12:49:55.719Z,99852.61
2023-01-08T12:52:33.197Z,99886.13
2023-01-08T12:55:28.959Z,99856.73
2023-01-08T12:58:20.397Z,99856.73
2023-01-08T13:00:59.603Z,99853.75
2023-01-08T13:03:33.217Z,99853.75
2023-01-08T13:06:09.766Z,99857.69
2023-01-08T13:08:42.948Z,99868.75
2023-01-08T13:11:16.061Z,99861.05
2023-01-08T13:13:47.645Z,99856.17
2023-01-08T13:16:24.622Z,99856.17
2023-01-08T13:19:00.538Z,99856.73
2023-01-08T13:21:45.741Z,99844.53
2023-01-08T13:24:36.792Z,99841.90
2023-01-08T13:27:22.243Z,99834.55
2023-01-08T13:29:53.575Z,99845.84
2023-01-08T13:32:30.088Z,99827.36
2023-01-08T13:35:15.383Z,99826.00
2023-01-08T13:37:52.099Z,99826.66
2023-01-08T13:40:50.724Z,99819.77
2023-01-08T13:43:41.922Z,99820.82
2023-01-08T13:46:21.029Z,99822.23
2023-01-08T13:49:08.780Z,99828.55
2023-01-08T13:51:46.183Z,99822.59
2023-01-08T13:54:22.474Z,99824.94
2023-01-08T13:56:58.906Z,99828.56
2023-01-08T13:59:44.302Z,99830.49
2023-01-08T14:02:27.006Z,99838.54
2023-01-08T14:04:58.425Z,99835.20
2023-01-08T14:07:29.402Z,99835.10
2023-01-08T14:10:08.422Z,99835.94
2023-01-08T14:12:39.127Z,99831.70
2023-01-08T14:15:12.260Z,99830.72
2023-01-08T14:17:45.120Z,99834.80
2023-01-08T14:20:18.539Z,99829.94
2023-01-08T14:22:49.141Z,99828.50
2023-01-08T14:25:21.597Z,99826.80
2023-01-08T14:28:01.217Z,99829.66
2023-01-08T14:30:31.774Z,99826.72
2023-01-08T14:33:02.837Z,99826.95
2023-01-08T14:35:36.238Z,99830.72
2023-01-08T14:38:06.808Z,99822.41
2023-01-08T14:40:40.633Z,99820.56
2023-01-08T14:43:13.804Z,99826.19
2023-01-08T14:45:50.053Z,99819.80
2023-01-08T14:48:32.518Z,99820.84
2023-01-08T14:51:11.529Z,99828.83
2023-01-08T14:53:48.447Z,99818.26
2023-01-08T14:56:22.319Z,99814.52
2023-01-08T14:58:54.852Z,99816.97
2023-01-08T15:01:28.428Z,99811.85
2023-01-08T15:04:12.780Z,99803.03
2023-01-08T15:06:43.388Z,99803.83
2023-01-08T15:09:26.384Z,99799.50
2023-01-08T15:11:59.523Z,99795.84
2023-01-08T15:14:33.506Z,99791.48
2023-01-08T15:17:17.105Z,99786.39
2023-01-08T15:19:50.579Z,99788.61
2023-01-08T15:22:23.665Z,99791.59
2023-01-08T15:24:59.915Z,99784.50
2023-01-08T15:27:31.676Z,99777.32
2023-01-08T15:30:03.905Z,99766.03
2023-01-08T15:32:37.574Z,99765.73
2023-01-08T15:35:19.497Z,99768.42
2023-01-08T15:37:50.024Z,99771.08
2023-01-08T15:40:20.585Z,99768.69
2023-01-08T15:43:08.967Z,99771.89
2023-01-08T15:45:41.996Z,99768.69
2023-01-08T15:48:12.877Z,99770.84
2023-01-08T15:50:45.660Z,99772.94
2023-01-08T15:53:24.489Z,99779.97
2023-01-08T15:55:55.049Z,99780.30
2023-01-08T15:58:26.719Z,99781.56
2023-01-08T16:00:57.296Z,99781.67
2023-01-08T16:03:29.529Z,99785.29
2023-01-08T16:06:00.116Z,99794.84
2023-01-08T16:08:30.673Z,99789.20
2023-01-08T16:11:01.232Z,99797.67
2023-01-08T16:13:31.786Z,99797.39
2023-01-08T16:16:08.320Z,99795.03
2023-01-08T16:18:40.627Z,99787.59
2023-01-08T16:21:12.684Z,99783.88
2023-01-08T16:23:43.367Z,99780.74
2023-01-08T16:26:15.834Z,99780.62
2023-01-08T16:28:47.464Z,99768.42
2023-01-08T16:31:18.265Z,99758.55
2023-01-08T16:33:48.811Z,99756.87
2023-01-08T16:36:19.378Z,99753.05
2023-01-08T16:38:50.308Z,99767.03
2023-01-08T16:41:20.948Z,99760.83
2023-01-08T16:43:51.478Z,99759.47
2023-01-08T16:46:22.079Z,99766.80
2023-01-08T16:48:52.656Z,99755.78
2023-01-08T16:51:24.907Z,99763.55
2023-01-08T16:53:56.527Z,99760.53
2023-01-08T16:56:27.086Z,99753.78
2023-01-08T16:58:58.361Z,99753.67
2023-01-08T17:01:28.955Z,99757.22
2023-01-08T17:04:00.707Z,99760.83
2023-01-08T17:06:32.611Z,99761.78
2023-01-08T17:09:03.163Z,99750.34
2023-01-08T17:11:33.741Z,99752.80
2023-01-08T17:14:04.323Z,99748.39
2023-01-08T17:16:34.975Z,99754.48
2023-01-08T17:19:05.724Z,99752.89
2023-01-08T17:21:37.399Z,99745.62
2023-01-08T17:24:08.622Z,99754.81
2023-01-08T17:26:39.188Z,99744.69
2023-01-08T17:29:09.755Z,99750.35
2023-01-08T17:31:40.559Z,99751.02
2023-01-08T17:34:15.620Z,99751.20
2023-01-08T17:36:46.180Z,99740.84
2023-01-08T17:39:16.732Z,99736.66
2023-01-08T17:42:04.904Z,99742.20
2023-01-08T17:44:35.452Z,99748.27
2023-01-08T17:47:06.001Z,99756.95
2023-01-08T17:49:36.583Z,99750.21
2023-01-08T17:52:07.262Z,99747.11
2023-01-08T17:54:37.844Z,99749.94
2023-01-08T17:57:08.476Z,99754.33
2023-01-08T17:59:40.201Z,99751.73
2023-01-08T18:02:15.788Z,99745.58
2023-01-08T18:04:46.117Z,99740.34
2023-01-08T18:07:17.133Z,99736.22
2023-01-08T18:09:49.464Z,99726.11
2023-01-08T18:12:20.331Z,99722.03
2023-01-08T18:14:51.263Z,99729.83
2023-01-08T18:17:21.847Z,99719.29
2023-01-08T18:19:52.372Z,99722.83
2023-01-08T18:22:22.923Z,99719.25
2023-01-08T18:24:53.471Z,99713.27
2023-01-08T18:27:24.263Z,99712.66
2023-01-08T18:29:55.940Z,99706.63
2023-01-08T18:32:26.516Z,99701.44
2023-01-08T18:34:57.161Z,99721.70
2023-01-08T18:37:28.747Z,99713.98
2023-01-08T18:39:59.302Z,99710.97
2023-01-08T18:42:31.069Z,99715.23
2023-01-08T18:45:03.140Z,99715.66
2023-01-08T18:47:33.680Z,99717.84
2023-01-08T18:50:04.968Z,99716.00
2023-01-08T18:52:38.866Z,99713.55
2023-01-08T18:55:09.935Z,99710.17
2023-01-08T18:57:41.636Z,99717.84
2023-01-08T19:00:13.266Z,99713.70
2023-01-08T19:02:44.436Z,99702.59
2023-01-08T19:05:15.157Z,99704.43
2023-01-08T19:07:46.035Z,99700.06
2023-01-08T19:10:17.682Z,99692.53
2023-01-08T19:12:49.016Z,99689.08
2023-01-08T19:15:19.678Z,99692.41
2023-01-08T19:17:50.219Z,99697.73
2023-01-08T19:20:20.942Z,99691.03
2023-01-08T19:22:52.769Z,99700.00
2023-01-08T19:25:23.723Z,99704.16
2023-01-08T19:27:54.284Z,99710.34
2023-01-08T19:30:24.818Z,99688.25
2023-01-08T19:32:55.396Z,99697.63
2023-01-08T19:35:25.944Z,99703.30
2023-01-08T19:37:57.720Z,99716.95
2023-01-08T19:40:28.276Z,99712.88
2023-01-08T19:43:17.832Z,99712.58
2023-01-08T19:45:48.489Z,99713.11
2023-01-08T19:48:19.046Z,99712.00
2023-01-08T19:50:50.124Z,99703.08
2023-01-08T19:53:20.679Z,99702.34
2023-01-08T19:55:51.212Z,99692.62
2023-01-08T19:58:23.487Z,99696.61
2023-01-08T20:00:54.073Z,99699.58
2023-01-08T20:03:26.259Z,99698.46
2023-01-08T20:05:56.837Z,99689.78
2023-01-08T20:08:27.396Z,99692.69
2023-01-08T20:10:57.966Z,99691.86
2023-01-08T20:13:31.243Z,99685.34
2023-01-08T20:16:01.896Z,99679.80
2023-01-08T20:18:33.150Z,99682.30
2023-01-08T20:21:16.527Z,99683.05
2023-01-08T20:23:49.067Z,99677.55
2023-01-08T20:26:21.100Z,99672.50
2023-01-08T20:28:51.700Z,99663.58
2023-01-08T20:31:26.350Z,99658.41
2023-01-08T20:33:58.821Z,99647.88
2023-01-08T20:36:32.641Z,99648.62
2023-01-08T20:39:05.765Z,99647.11
2023-01-08T20:41:37.541Z,99642.16
2023-01-08T20:44:09.185Z,99631.40
2023-01-08T20:46:40.335Z,99626.40
2023-01-08T20:49:17.192Z,99621.78
2023-01-08T20:51:57.864Z,99632.55
2023-01-08T20:54:20.359Z,99618.24
2023-01-08T20:56:51.947Z,99606.83
2023-01-08T20:59:24.917Z,99612.97
2023-01-08T21:02:00.642Z,99607.41
2023-01-08T21:04:32.231Z,99604.77
2023-01-08T21:07:08.363Z,99599.84
2023-01-08T21:09:40.489Z,99582.72
2023-01-08T21:12:12.756Z,99586.52
2023-01-08T21:14:45.377Z,99578.52
2023-01-08T21:17:17.343Z,99582.13
2023-01-08T21:19:53.340Z,99569.11
2023-01-08T21:22:26.414Z,99574.56
2023-01-08T21:24:58.309Z,99580.28
2023-01-08T21:27:31.708Z,99559.66
2023-01-08T21:30:14.811Z,99564.81
2023-01-08T21:32:47.092Z,99559.13
2023-01-08T21:35:20.739Z,99567.48
2023-01-08T21:37:52.844Z,99562.98
2023-01-08T21:40:26.479Z,99556.12
2023-01-08T21:43:17.717Z,99539.86
2023-01-08T21:45:58.082Z,99541.59
2023-01-08T21:48:33.462Z,99521.32
2023-01-08T21:51:05.587Z,99530.33
2023-01-08T21:53:38.279Z,99526.66
2023-01-08T21:56:11.168Z,99533.38
2023-01-08T21:58:44.022Z,99526.72
2023-01-08T22:01:16.901Z,99524.83
2023-01-08T22:03:50.973Z,99519.69
2023-01-08T22:06:27.880Z,99520.83
2023-01-08T22:08:59.431Z,99527.38
2023-01-08T22:11:31.308Z,99524.01
2023-01-08T22:14:06.575Z,99512.65
2023-01-08T22:16:40.872Z,99512.69
2023-01-08T22:19:14.936Z,99502.45
2023-01-08T22:21:48.746Z,99486.91
2023-01-08T22:24:25.493Z,99493.09
2023-01-08T22:26:57.233Z,99499.55
2023-01-08T22:29:33.731Z,99492.50
2023-01-08T22:32:06.846Z,99502.94
2023-01-08T22:34:38.551Z,99496.09
2023-01-08T22:37:12.033Z,99501.64
2023-01-08T22:39:44.737Z,99507.66
2023-01-08T22:42:20.310Z,99503.20
2023-01-08T22:45:02.981Z,99501.41
2023-01-08T22:47:37.999Z,99503.48
2023-01-08T22:50:13.142Z,99506.25
2023-01-08T22:52:45.573Z,99500.45
2023-01-08T22:55:16.619Z,99494.86
2023-01-08T22:57:48.939Z,99494.25
2023-01-08T23:00:22.469Z,99481.68
2023-01-08T23:02:55.426Z,99490.00
2023-01-08T23:05:26.889Z,99493.47
2023-01-08T23:08:01.765Z,99481.28
2023-01-08T23:10:37.991Z,99485.58
2023-01-08T23:13:11.198Z,99494.45
2023-01-08T23:15:46.873Z,99490.66
2023-01-08T23:18:18.829Z,99495.22
2023-01-08T23:20:49.356Z,99486.56
2023-01-08T23:23:20.122Z,99476.70
2023-01-08T23:25:50.817Z,99464.59
2023-01-08T23:28:24.694Z,99438.80
2023-01-08T23:30:55.263Z,99451.11
2023-01-08T23:33:25.943Z,99450.44
2023-01-08T23:35:56.473Z,99435.44
2023-01-08T23:38:27.569Z,99427.89
2023-01-08T23:40:59.248Z,99432.11
2023-01-08T23:43:31.125Z,99433.64
2023-01-08T23:46:08.769Z,99452.27
2023-01-08T23:48:39.589Z,99454.25
2023-01-08T23:51:10.631Z,99461.88
2023-01-08T23:53:42.311Z,99459.16
2023-01-08T23:56:12.934Z,99451.67
2023-01-08T23:58:45.163Z,99443.56
